createdAt,value
2023-08-05T00:01:32.087Z,17.90
2023-08-05T00:03:58.568Z,17.91
2023-08-05T00:06:24.999Z,17.94
2023-08-05T00:08:51.463Z,17.97
2023-08-05T00:11:17.995Z,17.95
2023-08-05T00:13:44.452Z,17.97
2023-08-05T00:16:10.995Z,17.97
2023-08-05T00:18:37.487Z,17.99
2023-08-05T00:21:04.048Z,18.00
2023-08-05T00:23:30.480Z,18.00
2023-08-05T00:25:56.980Z,18.00
2023-08-05T00:28:23.465Z,18.01
2023-08-05T00:30:49.927Z,18.00
2023-08-05T00:33:16.353Z,18.03
2023-08-05T00:35:42.880Z,18.02
2023-08-05T00:38:09.353Z,17.95
2023-08-05T00:40:35.833Z,17.99
2023-08-05T00:43:02.350Z,18.02
2023-08-05T00:45:28.805Z,18.03
2023-08-05T00:47:55.403Z,18.03
2023-08-05T00:50:23.230Z,18.03
2023-08-05T00:52:49.856Z,18.04
2023-08-05T00:55:16.428Z,18.05
2023-08-05T00:57:44.241Z,18.03
2023-08-05T01:00:11.068Z,18.01
2023-08-05T01:02:37.612Z,17.99
2023-08-05T01:05:04.382Z,18.00
2023-08-05T01:07:31.430Z,17.98
2023-08-05T01:09:57.813Z,17.99
2023-08-05T01:12:24.236Z,17.87
2023-08-05T01:14:50.680Z,17.81
2023-08-05T01:17:18.160Z,17.80
2023-08-05T01:19:46.494Z,17.79
2023-08-05T01:22:40.797Z,17.78
2023-08-05T01:25:28.675Z,17.80
2023-08-05T01:27:56.536Z,17.82
2023-08-05T01:30:24.217Z,17.79
2023-08-05T01:32:51.327Z,17.72
2023-08-05T01:35:20.183Z,17.63
2023-08-05T01:37:47.940Z,17.64
2023-08-05T01:40:14.852Z,17.66
2023-08-05T01:42:41.269Z,17.73
2023-08-05T01:45:08.281Z,17.72
2023-08-05T01:47:34.927Z,17.71
2023-08-05T01:50:01.395Z,17.69
2023-08-05T01:52:27.866Z,17.63
2023-08-05T01:54:54.270Z,17.64
2023-08-05T01:57:20.740Z,17.69
2023-08-05T01:59:47.150Z,17.72
2023-08-05T02:02:13.630Z,17.72
2023-08-05T02:04:40.053Z,17.69
2023-08-05T02:07:06.967Z,17.61
2023-08-05T02:09:33.378Z,17.64
2023-08-05T02:11:59.829Z,17.62
2023-08-05T02:14:26.247Z,17.63
2023-08-05T02:16:53.019Z,17.64
2023-08-05T02:19:19.724Z,17.63
2023-08-05T02:21:46.154Z,17.64
2023-08-05T02:24:12.604Z,17.66
2023-08-05T02:26:39.537Z,17.67
2023-08-05T02:29:06.006Z,17.68
2023-08-05T02:31:32.508Z,17.65
2023-08-05T02:33:58.931Z,17.68
2023-08-05T02:36:25.476Z,17.68
2023-08-05T02:38:51.967Z,17.68
2023-08-05T02:41:18.635Z,17.69
2023-08-05T02:43:45.067Z,17.71
2023-08-05T02:46:11.617Z,17.65
2023-08-05T02:48:38.088Z,17.65
2023-08-05T02:51:04.492Z,17.64
2023-08-05T02:53:30.902Z,17.62
2023-08-05T02:55:57.435Z,17.63
2023-08-05T02:58:23.970Z,17.64
2023-08-05T03:00:50.541Z,17.60
2023-08-05T03:03:17.650Z,17.59
2023-08-05T03:05:44.420Z,17.55
2023-08-05T03:08:11.860Z,17.52
2023-08-05T03:10:40.211Z,17.49
2023-08-05T03:13:06.804Z,17.48
2023-08-05T03:15:33.722Z,17.43
2023-08-05T03:18:00.263Z,17.41
2023-08-05T03:20:28.953Z,17.39
2023-08-05T03:22:56.236Z,17.42
2023-08-05T03:25:23.604Z,17.46
2023-08-05T03:27:50.758Z,17.47
2023-08-05T03:30:18.432Z,17.49
2023-08-05T03:32:47.325Z,17.49
2023-08-05T03:35:13.933Z,17.53
2023-08-05T03:37:40.359Z,17.53
2023-08-05T03:40:07.724Z,17.54
2023-08-05T03:42:34.214Z,17.53
2023-08-05T03:45:00.744Z,17.54
2023-08-05T03:47:27.417Z,17.43
2023-08-05T03:49:53.968Z,17.43
2023-08-05T03:52:20.410Z,17.43
2023-08-05T03:54:46.885Z,17.41
2023-08-05T03:57:13.368Z,17.35
2023-08-05T03:59:41.928Z,17.30
2023-08-05T04:02:08.628Z,17.27
2023-08-05T04:04:35.165Z,17.26
2023-08-05T04:07:01.579Z,17.24
2023-08-05T04:09:29.007Z,17.24
2023-08-05T04:11:56.951Z,17.23
2023-08-05T04:14:25.695Z,17.18
2023-08-05T04:16:55.895Z,17.15
2023-08-05T04:19:23.936Z,17.04
2023-08-05T04:21:52.745Z,17.07
2023-08-05T04:24:23.242Z,17.11
2023-08-05T04:26:53.858Z,17.08
2023-08-05T04:29:23.753Z,17.08
2023-08-05T04:31:50.906Z,17.12
2023-08-05T04:34:17.581Z,17.15
2023-08-05T04:36:49.566Z,17.19
2023-08-05T04:39:16.176Z,17.21
2023-08-05T04:41:42.664Z,17.27
2023-08-05T04:44:10.500Z,17.27
2023-08-05T04:46:37.056Z,17.23
2023-08-05T04:49:06.270Z,17.25
2023-08-05T04:51:32.680Z,17.24
2023-08-05T04:53:59.158Z,17.22
2023-08-05T04:56:26.371Z,17.25
2023-08-05T04:58:53.221Z,17.20
2023-08-05T05:01:19.875Z,17.17
2023-08-05T05:03:47.642Z,17.13
2023-08-05T05:06:14.129Z,17.11
2023-08-05T05:08:40.557Z,17.15
2023-08-05T05:11:08.526Z,17.16
2023-08-05T05:13:34.956Z,17.20
2023-08-05T05:16:03.913Z,17.24
2023-08-05T05:18:30.414Z,17.30
2023-08-05T05:20:56.830Z,17.27
2023-08-05T05:23:23.670Z,17.28
2023-08-05T05:25:50.075Z,17.32
2023-08-05T05:28:16.603Z,17.38
2023-08-05T05:30:43.086Z,17.36
2023-08-05T05:33:09.666Z,17.38
2023-08-05T05:35:36.255Z,17.38
2023-08-05T05:38:02.672Z,17.37
2023-08-05T05:40:29.126Z,17.40
2023-08-05T05:42:55.588Z,17.37
2023-08-05T05:45:22.422Z,17.41
2023-08-05T05:47:49.698Z,17.49
2023-08-05T05:50:17.583Z,17.56
2023-08-05T05:52:44.105Z,17.63
2023-08-05T05:55:10.507Z,17.63
2023-08-05T05:57:37.164Z,17.68
2023-08-05T06:00:06.305Z,17.68
2023-08-05T06:02:32.948Z,17.71
2023-08-05T06:04:59.494Z,17.76
2023-08-05T06:07:25.954Z,17.84
2023-08-05T06:09:52.484Z,17.84
2023-08-05T06:12:19.578Z,17.83
2023-08-05T06:14:46.160Z,17.82
2023-08-05T06:17:12.684Z,17.86
2023-08-05T06:19:39.089Z,17.89
2023-08-05T06:22:06.258Z,17.97
2023-08-05T06:24:32.731Z,18.03
2023-08-05T06:26:59.159Z,18.05
2023-08-05T06:29:25.610Z,18.05
2023-08-05T06:31:52.370Z,18.08
2023-08-05T06:34:21.398Z,18.08
2023-08-05T06:36:47.819Z,18.11
2023-08-05T06:39:14.300Z,18.09
2023-08-05T06:41:40.750Z,18.04
2023-08-05T06:44:07.208Z,18.01
2023-08-05T06:46:33.657Z,17.95
2023-08-05T06:49:00.194Z,17.88
2023-08-05T06:51:28.054Z,17.89
2023-08-05T06:53:54.475Z,17.89
2023-08-05T06:56:20.952Z,17.92
2023-08-05T06:58:47.970Z,17.89
2023-08-05T07:01:16.727Z,17.90
2023-08-05T07:03:43.396Z,17.84
2023-08-05T07:06:10.247Z,17.86
2023-08-05T07:08:36.691Z,17.96
2023-08-05T07:11:03.751Z,18.08
2023-08-05T07:13:30.272Z,18.29
2023-08-05T07:16:01.454Z,18.48
2023-08-05T07:18:28.031Z,18.54
2023-08-05T07:20:54.717Z,18.50
2023-08-05T07:23:21.641Z,18.55
2023-08-05T07:25:48.317Z,18.69
2023-08-05T07:28:14.859Z,18.77
2023-08-05T07:30:41.476Z,18.81
2023-08-05T07:33:12.871Z,18.74
2023-08-05T07:35:39.361Z,18.79
2023-08-05T07:38:10.243Z,18.86
2023-08-05T07:40:40.068Z,18.86
2023-08-05T07:43:07.240Z,19.02
2023-08-05T07:45:36.925Z,19.04
2023-08-05T07:48:07.618Z,19.19
2023-08-05T07:50:34.988Z,19.31
2023-08-05T07:53:01.437Z,19.38
2023-08-05T07:55:31.422Z,19.39
2023-08-05T07:57:57.870Z,19.45
2023-08-05T08:00:24.562Z,19.51
2023-08-05T08:02:52.164Z,19.56
2023-08-05T08:05:19.060Z,19.62
2023-08-05T08:07:48.463Z,19.71
2023-08-05T08:10:15.633Z,19.71
2023-08-05T08:12:42.967Z,19.74
2023-08-05T08:15:09.804Z,19.83
2023-08-05T08:17:38.411Z,19.80
2023-08-05T08:20:07.739Z,19.81
2023-08-05T08:22:34.210Z,20.02
2023-08-05T08:25:00.754Z,20.17
2023-08-05T08:27:27.191Z,20.43
2023-08-05T08:29:53.605Z,20.70
2023-08-05T08:32:20.060Z,20.94
2023-08-05T08:34:46.508Z,21.38
2023-08-05T08:37:12.927Z,21.43
2023-08-05T08:39:39.347Z,21.59
2023-08-05T08:42:06.925Z,21.40
2023-08-05T08:44:33.646Z,21.40
2023-08-05T08:47:00.127Z,21.41
2023-08-05T08:49:26.911Z,21.57
2023-08-05T08:51:54.375Z,21.87
2023-08-05T08:54:22.344Z,22.29
2023-08-05T08:56:48.821Z,22.46
2023-08-05T08:59:15.364Z,22.72
2023-08-05T09:01:42.567Z,22.80
2023-08-05T09:04:11.733Z,22.88
2023-08-05T09:06:40.284Z,22.91
2023-08-05T09:09:07.107Z,22.86
2023-08-05T09:11:33.640Z,22.96
2023-08-05T09:14:00.187Z,22.87
2023-08-05T09:16:27.797Z,22.77
2023-08-05T09:18:56.742Z,22.84
2023-08-05T09:21:28.738Z,23.00
2023-08-05T09:23:56.591Z,22.68
2023-08-05T09:26:33.458Z,22.66
2023-08-05T09:29:00.763Z,22.99
2023-08-05T09:31:27.513Z,23.36
2023-08-05T09:33:54.042Z,23.19
2023-08-05T09:36:23.364Z,23.23
2023-08-05T09:39:14.354Z,23.16
2023-08-05T09:41:44.700Z,22.72
2023-08-05T09:44:11.603Z,22.36
2023-08-05T09:46:48.397Z,22.19
2023-08-05T09:49:18.479Z,22.15
2023-08-05T09:51:50.201Z,22.42
2023-08-05T09:54:29.117Z,22.71
2023-08-05T09:56:55.680Z,22.76
2023-08-05T09:59:22.727Z,22.77
2023-08-05T10:01:49.353Z,22.84
2023-08-05T10:04:17.416Z,22.81
2023-08-05T10:06:44.425Z,22.91
2023-08-05T10:09:10.890Z,22.88
2023-08-05T10:11:38.296Z,22.76
2023-08-05T10:14:05.287Z,22.76
2023-08-05T10:16:32.525Z,22.70
2023-08-05T10:18:59.868Z,22.59
2023-08-05T10:21:39.401Z,22.44
2023-08-05T10:24:06.059Z,22.44
2023-08-05T10:26:46.135Z,22.58
2023-08-05T10:29:31.114Z,22.59
2023-08-05T10:32:10.347Z,22.59
2023-08-05T10:34:36.812Z,22.63
2023-08-05T10:37:04.274Z,22.50
2023-08-05T10:39:45.956Z,22.41
2023-08-05T10:42:30.710Z,22.34
2023-08-05T10:44:59.328Z,22.12
2023-08-05T10:47:25.858Z,22.12
2023-08-05T10:50:00.814Z,22.24
2023-08-05T10:52:28.614Z,22.29
2023-08-05T10:54:55.300Z,22.28
2023-08-05T10:57:44.825Z,22.29
2023-08-05T11:00:18.605Z,22.11
2023-08-05T11:02:45.406Z,22.01
2023-08-05T11:05:11.963Z,21.90
2023-08-05T11:07:39.459Z,21.73
2023-08-05T11:10:06.937Z,21.69
2023-08-05T11:12:33.461Z,21.73
2023-08-05T11:15:00.578Z,21.67
2023-08-05T11:17:27.432Z,21.53
2023-08-05T11:19:55.079Z,21.39
2023-08-05T11:22:26.140Z,21.19
2023-08-05T11:24:57.384Z,21.01
2023-08-05T11:27:34.713Z,20.88
2023-08-05T11:30:14.014Z,20.52
2023-08-05T11:32:57.625Z,20.07
2023-08-05T11:35:25.141Z,19.83
2023-08-05T11:37:51.847Z,19.73
2023-08-05T11:40:18.499Z,19.63
2023-08-05T11:42:45.257Z,19.54
2023-08-05T11:45:13.335Z,19.50
2023-08-05T11:47:41.091Z,19.53
2023-08-05T11:50:08.666Z,19.60
2023-08-05T11:52:35.201Z,19.65
2023-08-05T11:55:02.549Z,19.73
2023-08-05T11:57:28.982Z,19.61
2023-08-05T11:59:56.647Z,19.65
2023-08-05T12:02:25.393Z,19.73
2023-08-05T12:05:01.622Z,19.75
2023-08-05T12:07:30.401Z,19.74
2023-08-05T12:10:10.142Z,19.74
2023-08-05T12:12:37.510Z,19.78
2023-08-05T12:15:29.437Z,19.73
2023-08-05T12:17:58.930Z,19.73
2023-08-05T12:20:27.316Z,19.76
2023-08-05T12:22:57.308Z,19.78
2023-08-05T12:25:25.664Z,19.68
2023-08-05T12:27:52.416Z,19.71
2023-08-05T12:30:18.976Z,19.62
2023-08-05T12:32:45.519Z,19.51
2023-08-05T12:35:12.421Z,19.40
2023-08-05T12:37:40.699Z,19.31
2023-08-05T12:40:09.540Z,19.15
2023-08-05T12:42:36.088Z,19.21
2023-08-05T12:45:07.045Z,19.17
2023-08-05T12:47:35.819Z,19.14
2023-08-05T12:50:02.408Z,19.06
2023-08-05T12:52:28.899Z,19.07
2023-08-05T12:54:55.440Z,18.94
2023-08-05T12:57:22.301Z,18.85
2023-08-05T12:59:49.228Z,18.79
2023-08-05T13:02:15.771Z,18.73
2023-08-05T13:04:44.356Z,18.71
2023-08-05T13:07:11.198Z,18.68
2023-08-05T13:09:38.496Z,18.64
2023-08-05T13:12:05.451Z,18.56
2023-08-05T13:14:32.002Z,18.47
2023-08-05T13:16:58.619Z,18.48
2023-08-05T13:19:25.322Z,18.50
2023-08-05T13:21:51.785Z,18.52
2023-08-05T13:24:18.320Z,18.38
2023-08-05T13:26:44.893Z,18.36
2023-08-05T13:29:11.400Z,18.38
2023-08-05T13:31:39.155Z,18.36
2023-08-05T13:34:05.684Z,18.31
2023-08-05T13:36:32.236Z,18.17
2023-08-05T13:38:58.776Z,18.16
2023-08-05T13:41:25.318Z,18.20
2023-08-05T13:43:51.838Z,18.22
2023-08-05T13:46:18.409Z,18.18
2023-08-05T13:48:44.895Z,18.17
2023-08-05T13:51:11.749Z,18.27
2023-08-05T13:53:38.536Z,18.32
2023-08-05T13:56:05.674Z,18.28
2023-08-05T13:58:32.320Z,18.25
2023-08-05T14:01:00.905Z,18.26
2023-08-05T14:03:27.517Z,18.30
2023-08-05T14:05:58.191Z,18.29
2023-08-05T14:08:27.572Z,18.20
2023-08-05T14:10:54.802Z,18.22
2023-08-05T14:13:21.618Z,18.16
2023-08-05T14:15:52.621Z,18.16
2023-08-05T14:18:21.133Z,18.16
2023-08-05T14:20:50.776Z,18.11
2023-08-05T14:23:17.445Z,18.18
2023-08-05T14:25:46.684Z,18.13
2023-08-05T14:28:13.366Z,18.11
2023-08-05T14:30:40.808Z,18.09
2023-08-05T14:33:08.448Z,18.18
2023-08-05T14:35:36.156Z,18.21
2023-08-05T14:38:04.302Z,18.26
2023-08-05T14:40:32.396Z,18.29
2023-08-05T14:42:58.894Z,18.37
2023-08-05T14:45:25.448Z,18.31
2023-08-05T14:47:51.927Z,18.29
2023-08-05T14:50:18.395Z,18.31
2023-08-05T14:52:48.402Z,18.28
2023-08-05T14:55:15.643Z,18.29
2023-08-05T14:57:42.225Z,18.39
2023-08-05T15:00:10.664Z,18.37
2023-08-05T15:02:37.796Z,18.37
2023-08-05T15:05:04.522Z,18.41
2023-08-05T15:07:31.059Z,18.42
2023-08-05T15:09:57.520Z,18.43
2023-08-05T15:12:24.109Z,18.51
2023-08-05T15:14:51.883Z,18.50
2023-08-05T15:17:18.400Z,18.45
2023-08-05T15:19:44.910Z,18.43
2023-08-05T15:22:12.646Z,18.42
2023-08-05T15:24:39.067Z,18.44
2023-08-05T15:27:05.838Z,18.44
2023-08-05T15:29:32.298Z,18.39
2023-08-05T15:31:59.166Z,18.32
2023-08-05T15:34:25.944Z,18.23
2023-08-05T15:36:52.430Z,18.30
2023-08-05T15:39:18.867Z,18.41
2023-08-05T15:41:45.438Z,18.52
2023-08-05T15:44:11.962Z,18.45
2023-08-05T15:46:38.469Z,18.42
2023-08-05T15:49:04.975Z,18.34
2023-08-05T15:51:33.141Z,18.25
2023-08-05T15:53:59.544Z,18.23
2023-08-05T15:56:25.946Z,18.13
2023-08-05T15:58:52.531Z,18.16
2023-08-05T16:01:19.095Z,18.13
2023-08-05T16:03:45.548Z,18.13
2023-08-05T16:06:13.221Z,18.21
2023-08-05T16:08:39.735Z,18.31
2023-08-05T16:11:11.477Z,18.38
2023-08-05T16:13:37.899Z,18.27
2023-08-05T16:16:11.132Z,18.34
2023-08-05T16:18:38.148Z,18.36
2023-08-05T16:21:13.990Z,18.48
2023-08-05T16:23:40.644Z,18.56
2023-08-05T16:26:08.985Z,18.43
2023-08-05T16:28:35.621Z,18.38
2023-08-05T16:31:02.147Z,18.36
2023-08-05T16:33:28.659Z,18.47
2023-08-05T16:35:55.112Z,18.54
2023-08-05T16:38:21.528Z,18.55
2023-08-05T16:40:48.056Z,18.61
2023-08-05T16:43:14.744Z,18.71
2023-08-05T16:45:41.305Z,18.80
2023-08-05T16:48:07.753Z,18.79
2023-08-05T16:50:34.232Z,18.71
2023-08-05T16:53:00.722Z,18.56
2023-08-05T16:55:27.232Z,18.46
2023-08-05T16:57:55.196Z,18.45
2023-08-05T17:00:21.785Z,18.30
2023-08-05T17:02:48.468Z,18.18
2023-08-05T17:05:15.718Z,18.14
2023-08-05T17:07:42.574Z,18.15
2023-08-05T17:10:09.316Z,18.17
2023-08-05T17:12:35.830Z,18.16
2023-08-05T17:15:02.335Z,18.19
2023-08-05T17:17:28.889Z,18.20
2023-08-05T17:19:55.553Z,18.11
2023-08-05T17:22:22.638Z,18.06
2023-08-05T17:24:49.581Z,18.00
2023-08-05T17:27:16.003Z,17.91
2023-08-05T17:29:42.605Z,17.95
2023-08-05T17:32:09.313Z,17.89
2023-08-05T17:34:35.753Z,17.91
2023-08-05T17:37:02.220Z,17.92
2023-08-05T17:39:28.853Z,17.95
2023-08-05T17:41:55.264Z,17.97
2023-08-05T17:44:21.744Z,17.91
2023-08-05T17:46:48.279Z,17.93
2023-08-05T17:49:14.724Z,17.82
2023-08-05T17:51:41.205Z,17.84
2023-08-05T17:54:07.710Z,17.85
2023-08-05T17:56:34.224Z,17.86
2023-08-05T17:59:00.786Z,17.87
2023-08-05T18:01:27.234Z,17.89
2023-08-05T18:03:54.025Z,17.88
2023-08-05T18:06:22.407Z,17.87
2023-08-05T18:08:49.190Z,17.87
2023-08-05T18:11:15.761Z,17.89
2023-08-05T18:13:44.380Z,17.92
2023-08-05T18:16:10.887Z,17.85
2023-08-05T18:18:37.438Z,17.81
2023-08-05T18:21:03.970Z,17.81
2023-08-05T18:23:31.409Z,17.81
2023-08-05T18:25:58.044Z,17.67
2023-08-05T18:28:24.583Z,17.64
2023-08-05T18:30:52.815Z,17.60
2023-08-05T18:33:19.283Z,17.51
2023-08-05T18:35:49.660Z,17.45
2023-08-05T18:38:16.954Z,17.43
2023-08-05T18:40:43.724Z,17.47
2023-08-05T18:43:10.381Z,17.51
2023-08-05T18:45:37.071Z,17.52
2023-08-05T18:48:04.088Z,17.52
2023-08-05T18:50:31.024Z,17.51
2023-08-05T18:52:57.845Z,17.55
2023-08-05T18:55:24.510Z,17.59
2023-08-05T18:57:51.008Z,17.59
2023-08-05T19:00:17.454Z,17.58
2023-08-05T19:02:43.914Z,17.61
2023-08-05T19:05:11.030Z,17.55
2023-08-05T19:07:37.511Z,17.54
2023-08-05T19:10:05.430Z,17.47
2023-08-05T19:12:32.184Z,17.53
2023-08-05T19:14:58.750Z,17.53
2023-08-05T19:17:25.301Z,17.58
2023-08-05T19:19:51.800Z,17.57
2023-08-05T19:22:18.280Z,17.55
2023-08-05T19:24:44.806Z,17.55
2023-08-05T19:27:11.284Z,17.54
2023-08-05T19:29:37.752Z,17.50
2023-08-05T19:32:04.370Z,17.47
2023-08-05T19:34:30.829Z,17.48
2023-08-05T19:36:57.291Z,17.46
2023-08-05T19:39:24.175Z,17.42
2023-08-05T19:41:51.084Z,17.46
2023-08-05T19:44:17.724Z,17.47
2023-08-05T19:46:44.260Z,17.42
2023-08-05T19:49:12.290Z,17.40
2023-08-05T19:51:39.951Z,17.23
2023-08-05T19:54:06.424Z,17.19
2023-08-05T19:56:32.923Z,17.12
2023-08-05T19:58:59.406Z,17.10
2023-08-05T20:01:26.951Z,16.99
2023-08-05T20:03:53.387Z,16.99
2023-08-05T20:06:19.847Z,16.92
2023-08-05T20:08:46.388Z,16.88
2023-08-05T20:11:14.877Z,16.86
2023-08-05T20:13:43.373Z,16.85
2023-08-05T20:16:09.865Z,16.77
2023-08-05T20:18:36.417Z,16.72
2023-08-05T20:21:03.122Z,16.68
2023-08-05T20:23:29.816Z,16.64
2023-08-05T20:25:56.383Z,16.63
2023-08-05T20:28:22.912Z,16.67
2023-08-05T20:30:50.831Z,16.64
2023-08-05T20:33:17.342Z,16.68
2023-08-05T20:35:44.025Z,16.72
2023-08-05T20:38:10.568Z,16.69
2023-08-05T20:40:38.363Z,16.68
2023-08-05T20:43:04.854Z,16.64
2023-08-05T20:45:36.668Z,16.62
2023-08-05T20:48:03.236Z,16.59
2023-08-05T20:50:29.741Z,16.58
2023-08-05T20:52:58.438Z,16.61
2023-08-05T20:55:24.959Z,16.60
2023-08-05T20:57:51.438Z,16.61
2023-08-05T21:00:17.871Z,16.67
2023-08-05T21:02:44.683Z,16.65
2023-08-05T21:05:11.230Z,16.68
2023-08-05T21:07:37.761Z,16.69
2023-08-05T21:10:04.371Z,16.73
2023-08-05T21:12:30.831Z,16.76
2023-08-05T21:14:57.301Z,16.79
2023-08-05T21:17:23.839Z,16.74
2023-08-05T21:19:50.405Z,16.76
2023-08-05T21:22:16.857Z,16.75
2023-08-05T21:24:43.391Z,16.75
2023-08-05T21:27:09.957Z,16.78
2023-08-05T21:29:36.961Z,16.70
2023-08-05T21:32:05.594Z,16.71
2023-08-05T21:34:32.087Z,16.72
2023-08-05T21:36:58.506Z,16.74
2023-08-05T21:39:24.975Z,16.78
2023-08-05T21:41:51.716Z,16.82
2023-08-05T21:44:18.375Z,16.80
2023-08-05T21:46:44.844Z,16.79
2023-08-05T21:49:11.345Z,16.77
2023-08-05T21:51:37.771Z,16.73
2023-08-05T21:54:05.145Z,16.66
2023-08-05T21:56:31.737Z,16.69
2023-08-05T21:58:58.191Z,16.68
2023-08-05T22:01:24.701Z,16.66
2023-08-05T22:03:51.234Z,16.77
2023-08-05T22:06:17.819Z,16.75
2023-08-05T22:08:44.296Z,16.75
2023-08-05T22:11:10.820Z,16.79
2023-08-05T22:13:37.411Z,16.73
2023-08-05T22:16:04.185Z,16.70
2023-08-05T22:18:30.705Z,16.76
2023-08-05T22:20:57.133Z,16.75
2023-08-05T22:23:23.553Z,16.80
2023-08-05T22:25:49.959Z,16.86
2023-08-05T22:28:16.425Z,16.92
2023-08-05T22:30:43.107Z,16.90
2023-08-05T22:33:09.657Z,16.87
2023-08-05T22:35:36.141Z,16.85
2023-08-05T22:38:02.668Z,16.86
2023-08-05T22:40:29.256Z,16.81
2023-08-05T22:42:55.804Z,16.78
2023-08-05T22:45:23.351Z,16.76
2023-08-05T22:47:49.859Z,16.75
2023-08-05T22:50:16.711Z,16.81
2023-08-05T22:52:43.150Z,16.83
2023-08-05T22:55:09.831Z,16.85
2023-08-05T22:57:36.231Z,16.87
2023-08-05T23:00:02.660Z,16.90
2023-08-05T23:02:29.146Z,16.88
2023-08-05T23:04:55.680Z,16.90
2023-08-05T23:07:22.264Z,16.88
2023-08-05T23:09:51.773Z,16.81
2023-08-05T23:12:18.304Z,16.79
2023-08-05T23:14:45.132Z,16.86
2023-08-05T23:17:11.622Z,16.83
2023-08-05T23:19:39.258Z,16.89
2023-08-05T23:22:05.785Z,16.89
2023-08-05T23:24:32.252Z,16.89
2023-08-05T23:26:58.687Z,16.85
2023-08-05T23:29:25.125Z,16.86
2023-08-05T23:31:51.791Z,16.89
2023-08-05T23:34:18.545Z,16.94
2023-08-05T23:36:45.037Z,16.91
2023-08-05T23:39:11.575Z,16.89
2023-08-05T23:41:38.085Z,16.86
2023-08-05T23:44:04.731Z,16.85
2023-08-05T23:46:31.238Z,16.81
2023-08-05T23:48:57.715Z,16.82
2023-08-05T23:51:24.206Z,16.79
2023-08-05T23:53:50.795Z,16.75
2023-08-05T23:56:17.269Z,16.76
2023-08-05T23:58:43.862Z,16.78
